Time;durP1;ratioP1;P1;durP2;ratioP2;P2;SDS_P1;SDS_P2;PMS_P1;PMS_P2;Temp;Humidity;BMP_temperature;BMP_pressure;BME280_temperature;BME280_humidity;BME280_pressure;Samples;Min_cycle;Max_cycle;Signal;HPM_P1;HPM_P2
2023/03/21 03:02:03;;;;;;;4.00;3.60;;;8.80;99.90;;;;;;5294687;23;20252;-77
2023/03/21 03:04:30;;;;;;;5.10;4.10;;;8.80;99.90;;;;;;4972171;28;20202;-76
2023/03/21 03:07:23;;;;;;;6.87;4.80;;;8.70;99.90;;;;;;4971356;28;20198;-77
2023/03/21 03:10:08;;;;;;;6.93;4.37;;;8.70;99.90;;;;;;4970916;28;20582;-77
2023/03/21 03:12:42;;;;;;;5.40;4.37;;;8.70;99.90;;;;;;4968042;28;20282;-77
2023/03/21 03:15:20;;;;;;;5.70;4.37;;;8.80;99.90;;;;;;4968602;28;20298;-77
2023/03/21 03:17:54;;;;;;;5.13;3.93;;;8.70;99.90;;;;;;4967245;28;20199;-77
2023/03/21 03:20:28;;;;;;;5.77;4.30;;;8.70;99.90;;;;;;4970160;28;20298;-78
2023/03/21 03:23:06;;;;;;;4.60;3.87;;;8.80;99.90;;;;;;4967225;28;20261;-76
2023/03/21 03:25:39;;;;;;;5.07;4.47;;;8.80;99.90;;;;;;4964371;28;20232;-77
2023/03/21 03:28:07;;;;;;;5.53;4.63;;;8.70;99.90;;;;;;4961737;28;20294;-77
2023/03/21 03:30:36;;;;;;;4.43;3.97;;;8.80;99.90;;;;;;4960757;28;20203;-77
2023/03/21 03:33:09;;;;;;;4.73;4.00;;;8.70;99.90;;;;;;4962760;28;20201;-77
2023/03/21 03:35:35;;;;;;;5.03;4.10;;;8.70;99.90;;;;;;4970571;28;20207;-76
2023/03/21 03:38:06;;;;;;;4.30;3.90;;;8.70;99.90;;;;;;4973067;28;20208;-77
2023/03/21 03:40:40;;;;;;;7.00;3.93;;;8.70;99.90;;;;;;4952139;28;20204;-77
2023/03/21 03:43:19;;;;;;;5.23;4.30;;;8.70;99.90;;;;;;4950066;28;20269;-77
2023/03/21 03:45:50;;;;;;;4.83;4.07;;;8.70;99.90;;;;;;4952477;28;20294;-77
2023/03/21 03:48:25;;;;;;;4.67;4.27;;;8.70;99.90;;;;;;4950615;28;20309;-77
2023/03/21 03:50:57;;;;;;;5.43;4.30;;;8.70;99.90;;;;;;4975400;28;20673;-77
2023/03/21 03:53:37;;;;;;;5.93;4.60;;;8.70;99.90;;;;;;4952744;28;20202;-80
2023/03/21 03:56:08;;;;;;;5.60;4.50;;;8.70;99.90;;;;;;4969754;28;20621;-80
2023/03/21 03:58:37;;;;;;;5.87;4.10;;;8.60;99.90;;;;;;4952357;28;20199;-79
2023/03/21 04:01:06;;;;;;;6.83;4.70;;;8.60;99.90;;;;;;4952735;28;20734;-79
2023/03/21 04:03:37;;;;;;;6.20;4.50;;;8.60;99.90;;;;;;4951073;28;20273;-80
2023/03/21 04:06:07;;;;;;;4.77;4.20;;;8.60;99.90;;;;;;4950887;28;20202;-80
2023/03/21 04:08:36;;;;;;;7.13;4.63;;;8.60;99.90;;;;;;4948868;28;20247;-80
2023/03/21 04:11:03;;;;;;;5.60;4.50;;;8.60;99.90;;;;;;4952078;28;20278;-79
2023/03/21 04:13:36;;;;;;;5.57;4.67;;;8.50;99.90;;;;;;4953367;28;20290;-79
2023/03/21 04:16:13;;;;;;;5.93;4.47;;;8.50;99.90;;;;;;4949938;28;20230;-81
2023/03/21 04:18:42;;;;;;;5.03;4.33;;;8.50;99.90;;;;;;4963678;28;20191;-80
2023/03/21 04:21:11;;;;;;;5.20;4.70;;;8.50;99.90;;;;;;4967795;28;20254;-80
2023/03/21 04:23:38;;;;;;;4.87;4.10;;;8.40;99.90;;;;;;4972764;28;20205;-81
2023/03/21 04:26:07;;;;;;;4.87;4.37;;;8.40;99.90;;;;;;4967075;28;20202;-80
2023/03/21 04:28:39;;;;;;;5.23;4.63;;;8.40;99.90;;;;;;4965353;28;20210;-79
2023/03/21 04:31:40;;;;;;;5.07;4.30;;;8.40;99.90;;;;;;4962494;28;20253;-79
2023/03/21 04:34:12;;;;;;;5.80;4.67;;;8.40;99.90;;;;;;4955499;28;20201;-80
2023/03/21 04:36:45;;;;;;;7.00;5.00;;;8.30;99.90;;;;;;4980878;28;20205;-79
2023/03/21 04:39:12;;;;;;;5.33;4.80;;;8.30;99.90;;;;;;4961396;28;20201;-79
2023/03/21 04:41:42;;;;;;;7.20;5.37;;;8.30;99.90;;;;;;4965398;28;20218;-79
2023/03/21 04:44:10;;;;;;;5.67;4.70;;;8.30;99.90;;;;;;4964675;28;20209;-79
2023/03/21 04:46:38;;;;;;;5.70;5.10;;;8.30;99.90;;;;;;4966409;28;20213;-77
2023/03/21 04:49:06;;;;;;;6.57;5.10;;;8.20;99.90;;;;;;4958411;28;20221;-77
2023/03/21 04:51:35;;;;;;;5.63;4.90;;;8.20;99.90;;;;;;4970806;28;20903;-76
2023/03/21 04:54:04;;;;;;;6.00;5.00;;;8.10;99.90;;;;;;4954860;28;20245;-77
2023/03/21 04:56:32;;;;;;;6.37;5.07;;;8.10;99.90;;;;;;4966421;28;20201;-77
2023/03/21 04:59:01;;;;;;;7.13;4.93;;;8.10;99.90;;;;;;4971819;28;20718;-77
2023/03/21 05:01:29;;;;;;;5.90;5.30;;;8.10;99.90;;;;;;4969819;28;20241;-77
2023/03/21 05:03:57;;;;;;;6.40;5.40;;;8.00;99.90;;;;;;4961164;28;20210;-76
2023/03/21 05:06:24;;;;;;;6.97;5.90;;;8.00;99.90;;;;;;4960039;28;20232;-77
2023/03/21 05:08:53;;;;;;;7.43;5.77;;;8.00;99.90;;;;;;4969227;28;20214;-76
2023/03/21 05:11:20;;;;;;;5.33;4.43;;;8.00;99.90;;;;;;4964652;28;20313;-77
2023/03/21 05:13:46;;;;;;;6.13;5.53;;;7.90;99.90;;;;;;4963336;28;20199;-77
2023/03/21 05:16:13;;;;;;;6.63;5.10;;;7.90;99.90;;;;;;4968517;28;20221;-77
2023/03/21 05:18:43;;;;;;;6.30;5.30;;;7.90;99.90;;;;;;4968450;28;20709;-76
2023/03/21 05:21:17;;;;;;;6.67;5.33;;;8.00;99.90;;;;;;4960298;28;20221;-76
2023/03/21 05:23:53;;;;;;;7.40;5.57;;;8.00;99.90;;;;;;4969754;28;20297;-76
2023/03/21 05:26:22;;;;;;;5.60;5.10;;;8.00;99.90;;;;;;4965315;28;20280;-76
2023/03/21 05:28:57;;;;;;;6.70;5.30;;;8.00;99.90;;;;;;4964613;28;20233;-76
2023/03/21 05:31:25;;;;;;;5.30;4.80;;;8.00;99.90;;;;;;4953909;28;20232;-77
2023/03/21 05:34:01;;;;;;;5.73;5.13;;;8.10;99.90;;;;;;4959687;28;20240;-77
2023/03/21 05:36:28;;;;;;;4.93;4.40;;;8.10;99.90;;;;;;4959696;28;20207;-77
2023/03/21 05:38:55;;;;;;;6.67;4.90;;;8.10;99.90;;;;;;4964046;28;20195;-77
2023/03/21 05:41:24;;;;;;;4.83;4.37;;;8.10;99.90;;;;;;4967724;28;20230;-77
2023/03/21 05:43:51;;;;;;;5.47;4.80;;;8.20;99.90;;;;;;4970477;28;20213;-77
2023/03/21 05:46:18;;;;;;;5.53;4.60;;;8.10;99.90;;;;;;4963041;28;20194;-77
2023/03/21 05:48:45;;;;;;;5.67;5.07;;;8.10;99.90;;;;;;4958480;28;20301;-77
2023/03/21 05:51:15;;;;;;;5.60;4.83;;;8.10;99.90;;;;;;4975093;28;20229;-77
2023/03/21 05:53:41;;;;;;;4.90;4.40;;;8.10;99.90;;;;;;4966134;28;20568;-77
2023/03/21 05:56:09;;;;;;;6.47;5.33;;;8.10;99.90;;;;;;4962708;28;20202;-76
2023/03/21 05:59:07;;;;;;;6.93;5.23;;;8.10;99.90;;;;;;4957563;28;20749;-76
2023/03/21 06:01:40;;;;;;;5.47;4.97;;;8.10;99.90;;;;;;4946844;28;20308;-77
2023/03/21 06:04:12;;;;;;;7.43;4.93;;;8.10;99.90;;;;;;4966168;28;20210;-76
2023/03/21 06:06:40;;;;;;;5.40;4.87;;;8.10;99.90;;;;;;4964298;28;20286;-76
2023/03/21 06:09:07;;;;;;;7.17;4.97;;;8.10;99.90;;;;;;4972090;28;20708;-77
2023/03/21 06:11:35;;;;;;;5.43;4.73;;;8.20;99.90;;;;;;4965318;28;20229;-77
2023/03/21 06:14:19;;;;;;;5.80;4.77;;;8.20;99.90;;;;;;4962879;28;20209;-76
2023/03/21 06:16:58;;;;;;;6.20;4.63;;;8.20;99.90;;;;;;4950820;28;20646;-77
2023/03/21 06:19:25;;;;;;;4.77;4.27;;;8.30;99.90;;;;;;4959589;28;20198;-76
2023/03/21 06:22:02;;;;;;;7.33;4.77;;;8.30;99.90;;;;;;4959162;28;20217;-78
2023/03/21 06:24:31;;;;;;;5.03;4.50;;;8.30;99.90;;;;;;4971232;28;20236;-79
2023/03/21 06:26:59;;;;;;;6.00;4.97;;;8.30;99.90;;;;;;4970581;28;20199;-79
2023/03/21 06:29:32;;;;;;;5.88;4.60;;;8.40;99.90;;;;;;4967790;28;20457;-79
2023/03/21 06:31:59;;;;;;;6.78;6.18;;;8.40;99.90;;;;;;4961939;28;20446;-78
2023/03/21 06:34:27;;;;;;;5.90;5.00;;;8.50;99.90;;;;;;4954991;28;20452;-79
2023/03/21 06:36:53;;;;;;;6.03;5.43;;;8.50;99.90;;;;;;4966035;28;20481;-79
2023/03/21 06:39:26;;;;;;;5.00;4.50;;;8.50;99.90;;;;;;4963917;28;20681;-79
2023/03/21 06:41:53;;;;;;;5.87;4.93;;;8.50;99.90;;;;;;4965675;28;20222;-79
2023/03/21 06:44:21;;;;;;;7.10;6.10;;;8.50;99.90;;;;;;4969115;28;20619;-78
2023/03/21 06:47:00;;;;;;;6.20;5.50;;;8.70;99.90;;;;;;4958107;28;20209;-80
2023/03/21 06:49:27;;;;;;;7.87;6.50;;;8.90;99.90;;;;;;4969038;28;20219;-79
2023/03/21 06:51:56;;;;;;;5.87;5.13;;;9.10;99.90;;;;;;4972033;28;20246;-80
2023/03/21 06:54:23;;;;;;;5.50;5.00;;;9.40;99.90;;;;;;4954090;28;20204;-79
2023/03/21 06:56:55;;;;;;;8.87;5.93;;;9.60;99.90;;;;;;4972140;28;20217;-79
2023/03/21 06:59:32;;;;;;;10.80;9.70;;;9.80;99.90;;;;;;4966928;28;20252;-79
2023/03/21 07:02:07;;;;;;;10.03;9.23;;;10.10;99.90;;;;;;4966644;28;20598;-79
2023/03/21 07:04:40;;;;;;;9.30;8.63;;;10.40;99.90;;;;;;4964303;28;20221;-78
2023/03/21 07:07:12;;;;;;;7.47;4.20;;;10.60;99.90;;;;;;4962782;28;20596;-80
2023/03/21 07:09:40;;;;;;;11.70;10.70;;;10.90;99.90;;;;;;4961430;28;20215;-82
2023/03/21 07:12:07;;;;;;;5.33;4.10;;;10.90;99.90;;;;;;4969236;28;20228;-80
2023/03/21 07:14:45;;;;;;;7.40;5.70;;;11.10;99.90;;;;;;4951224;28;20206;-80
2023/03/21 07:17:13;;;;;;;4.30;3.90;;;11.40;99.90;;;;;;4950973;28;20261;-80
2023/03/21 07:19:40;;;;;;;4.87;4.30;;;11.70;99.90;;;;;;4964461;28;20681;-80
2023/03/21 07:22:07;;;;;;;4.37;3.70;;;12.10;99.90;;;;;;4969261;28;20225;-81
2023/03/21 07:24:34;;;;;;;6.03;4.50;;;12.30;99.90;;;;;;4964039;28;20205;-81
2023/03/21 07:27:00;;;;;;;4.77;4.37;;;12.60;99.90;;;;;;4961718;28;20230;-81
2023/03/21 07:29:27;;;;;;;5.80;4.90;;;12.70;99.90;;;;;;4969970;28;20222;-82
2023/03/21 07:31:54;;;;;;;5.30;4.10;;;12.90;99.90;;;;;;4964578;28;20222;-82
2023/03/21 07:34:24;;;;;;;5.93;4.30;;;13.10;99.90;;;;;;4957032;28;20221;-81
2023/03/21 07:36:50;;;;;;;3.90;3.60;;;13.30;99.90;;;;;;4960543;28;20196;-82
2023/03/21 07:39:18;;;;;;;5.07;4.33;;;13.50;99.90;;;;;;4964325;28;20218;-81
2023/03/21 07:41:45;;;;;;;6.30;4.53;;;13.70;99.90;;;;;;4958742;28;20278;-80
2023/03/21 07:44:24;;;;;;;4.50;4.10;;;14.00;99.90;;;;;;4947929;28;20702;-82
2023/03/21 07:47:01;;;;;;;7.70;4.67;;;14.30;99.90;;;;;;4950067;28;20289;-83
2023/03/21 07:49:30;;;;;;;7.13;4.73;;;14.70;99.90;;;;;;4948548;28;20254;-81
2023/03/21 07:51:58;;;;;;;5.30;4.30;;;15.00;99.90;;;;;;4962075;28;20273;-82
2023/03/21 07:54:27;;;;;;;4.80;3.93;;;15.20;99.90;;;;;;4965198;28;20724;-81
2023/03/21 07:56:54;;;;;;;7.00;4.00;;;15.40;99.90;;;;;;4970419;28;20205;-82
2023/03/21 07:59:21;;;;;;;4.93;4.00;;;15.60;99.90;;;;;;4956548;28;20734;-79
2023/03/21 08:01:48;;;;;;;5.77;4.23;;;15.70;99.90;;;;;;4966094;28;20770;-78
2023/03/21 08:04:15;;;;;;;4.73;4.17;;;16.00;99.90;;;;;;4948850;28;20213;-79
2023/03/21 08:06:43;;;;;;;5.83;4.53;;;16.20;99.90;;;;;;4967589;28;20653;-78
2023/03/21 08:09:10;;;;;;;5.50;4.10;;;16.50;99.90;;;;;;4959634;28;20216;-79
2023/03/21 08:11:37;;;;;;;5.47;4.07;;;16.80;99.90;;;;;;4958588;28;20227;-79
2023/03/21 08:14:03;;;;;;;4.43;3.90;;;17.00;99.90;;;;;;4963525;28;20465;-79
2023/03/21 08:16:31;;;;;;;5.97;4.17;;;17.30;99.90;;;;;;4963171;28;20665;-79
2023/03/21 08:18:58;;;;;;;6.33;4.30;;;17.40;99.90;;;;;;4962799;28;20265;-79
2023/03/21 08:21:25;;;;;;;5.33;4.00;;;16.90;99.90;;;;;;4960902;28;20226;-79
2023/03/21 08:23:53;;;;;;;5.03;4.00;;;16.90;99.90;;;;;;4966435;28;20277;-79
2023/03/21 08:26:23;;;;;;;5.40;4.13;;;17.10;99.90;;;;;;4962056;28;20202;-79
2023/03/21 08:28:50;;;;;;;4.25;3.80;;;17.40;99.90;;;;;;4963031;28;20457;-78
2023/03/21 08:31:19;;;;;;;4.70;3.53;;;17.60;99.90;;;;;;4962090;28;20221;-78
2023/03/21 08:33:49;;;;;;;6.23;4.10;;;17.70;99.90;;;;;;4967438;28;20206;-79
2023/03/21 08:36:16;;;;;;;4.97;4.00;;;17.40;99.90;;;;;;4959566;28;20553;-79
2023/03/21 08:38:44;;;;;;;5.83;4.00;;;17.30;99.90;;;;;;4959444;28;20216;-79
2023/03/21 08:41:13;;;;;;;4.03;3.63;;;17.00;99.90;;;;;;4960536;28;20219;-79
2023/03/21 08:43:39;;;;;;;4.33;3.60;;;16.90;99.90;;;;;;4951595;28;20207;-79
2023/03/21 08:46:07;;;;;;;4.93;4.43;;;16.80;99.90;;;;;;4956757;28;20216;-83
2023/03/21 08:48:33;;;;;;;5.13;4.63;;;16.70;99.90;;;;;;4953821;28;20200;-82
2023/03/21 08:51:00;;;;;;;4.93;3.93;;;17.00;99.90;;;;;;4953937;28;20232;-83
2023/03/21 08:53:28;;;;;;;4.83;4.30;;;17.30;99.90;;;;;;4951734;28;20207;-83
2023/03/21 08:55:55;;;;;;;5.30;4.80;;;17.60;99.90;;;;;;4955702;28;20204;-82
2023/03/21 08:58:23;;;;;;;4.83;4.53;;;17.60;99.90;;;;;;4953679;28;20202;-82
2023/03/21 09:00:50;;;;;;;4.50;4.20;;;17.90;99.90;;;;;;4948036;28;20230;-81
2023/03/21 09:03:18;;;;;;;5.13;4.63;;;18.20;99.90;;;;;;4951474;28;20694;-83
2023/03/21 09:05:45;;;;;;;5.17;4.77;;;18.20;99.90;;;;;;4960604;28;20246;-82
2023/03/21 09:08:12;;;;;;;4.50;4.10;;;18.60;99.90;;;;;;4948708;28;20202;-83
2023/03/21 09:10:39;;;;;;;3.97;2.90;;;18.90;99.90;;;;;;4945861;28;20309;-79
2023/03/21 09:13:06;;;;;;;4.13;3.30;;;19.10;99.90;;;;;;4956290;28;20583;-79
2023/03/21 09:15:35;;;;;;;3.43;2.90;;;19.00;99.90;;;;;;4948543;28;20198;-79
2023/03/21 09:18:12;;;;;;;3.92;3.33;;;19.20;99.90;;;;;;4947488;28;20528;-79
2023/03/21 09:20:39;;;;;;;3.00;2.80;;;19.40;99.90;;;;;;4947497;28;20198;-78
2023/03/21 09:23:06;;;;;;;3.13;2.80;;;19.70;99.90;;;;;;4951547;28;20226;-79
2023/03/21 09:25:33;;;;;;;5.47;3.30;;;20.00;99.90;;;;;;4949232;28;20197;-78
2023/03/21 09:28:03;;;;;;;3.27;2.97;;;19.60;99.90;;;;;;4946162;28;20202;-80
2023/03/21 09:30:30;;;;;;;3.10;2.90;;;19.70;99.90;;;;;;4953315;28;20210;-80
2023/03/21 09:33:00;;;;;;;3.23;2.87;;;19.60;99.90;;;;;;4943575;28;20725;-80
2023/03/21 09:35:28;;;;;;;4.97;3.10;;;19.70;99.90;;;;;;4950523;28;20202;-79
2023/03/21 09:37:57;;;;;;;3.33;3.00;;;19.90;99.90;;;;;;4947159;28;20201;-80
2023/03/21 09:40:45;;;;;;;4.00;3.70;;;19.70;99.90;;;;;;4958087;28;20199;-80
2023/03/21 09:43:21;;;;;;;4.60;4.20;;;20.00;99.90;;;;;;4945606;28;20202;-80
2023/03/21 09:45:54;;;;;;;4.70;4.30;;;19.90;99.90;;;;;;4947234;28;20205;-79
2023/03/21 09:48:34;;;;;;;5.30;4.80;;;19.90;99.90;;;;;;4946468;28;20555;-80
2023/03/21 09:51:04;;;;;;;5.07;4.63;;;19.70;99.90;;;;;;4957194;28;20608;-78
2023/03/21 09:53:35;;;;;;;5.50;5.00;;;19.60;99.90;;;;;;4946645;28;20242;-76
2023/03/21 09:56:04;;;;;;;7.97;7.47;;;19.80;99.90;;;;;;4949775;28;20437;-78
2023/03/21 09:58:37;;;;;;;7.90;7.40;;;19.70;99.90;;;;;;4948787;28;20209;-78
2023/03/21 10:01:15;;;;;;;9.67;8.87;;;19.20;99.90;;;;;;4946990;28;20229;-77
2023/03/21 10:03:43;;;;;;;8.63;8.13;;;19.10;99.90;;;;;;4957040;28;20625;-78
2023/03/21 10:06:14;;;;;;;8.87;8.37;;;18.80;99.90;;;;;;4954508;28;20207;-78
2023/03/21 10:08:44;;;;;;;9.10;8.50;;;18.70;99.90;;;;;;4966760;28;20670;-78
2023/03/21 10:11:15;;;;;;;8.03;7.50;;;18.80;99.90;;;;;;4970874;28;20225;-78
2023/03/21 10:13:46;;;;;;;8.90;8.10;;;18.80;99.90;;;;;;4977570;28;20182;-78
2023/03/21 10:16:15;;;;;;;7.80;7.27;;;18.80;99.90;;;;;;4968170;28;20196;-77
2023/03/21 10:18:45;;;;;;;8.17;7.67;;;18.70;99.90;;;;;;4966841;28;20229;-77
2023/03/21 10:21:19;;;;;;;8.00;7.30;;;18.60;99.90;;;;;;4965316;28;20224;-78
2023/03/21 10:23:46;;;;;;;8.10;7.60;;;18.50;99.90;;;;;;4970582;28;20206;-78
2023/03/21 10:26:13;;;;;;;8.90;8.00;;;18.50;99.90;;;;;;4962201;28;20238;-78
2023/03/21 10:28:43;;;;;;;8.23;7.70;;;18.20;99.90;;;;;;4970376;28;20203;-78
2023/03/21 10:31:15;;;;;;;7.90;7.30;;;18.40;99.90;;;;;;4964439;28;20234;-80
2023/03/21 10:33:46;;;;;;;7.80;7.30;;;18.50;99.90;;;;;;4950578;28;20209;-79
2023/03/21 10:36:18;;;;;;;7.87;7.37;;;18.80;99.90;;;;;;4975876;28;20672;-80
2023/03/21 10:38:47;;;;;;;8.63;7.93;;;18.80;99.90;;;;;;4969958;28;20304;-81
2023/03/21 10:41:14;;;;;;;8.20;7.60;;;18.50;99.90;;;;;;4958395;28;20207;-80
2023/03/21 10:43:44;;;;;;;8.20;7.60;;;18.30;99.90;;;;;;4959539;28;20206;-80
2023/03/21 10:46:13;;;;;;;8.10;7.40;;;18.20;99.90;;;;;;4966827;28;20206;-79
2023/03/21 10:48:45;;;;;;;7.83;7.20;;;18.10;99.90;;;;;;4961485;28;20264;-80
2023/03/21 10:51:18;;;;;;;7.57;7.07;;;18.20;99.90;;;;;;4955253;28;20234;-80
2023/03/21 10:53:47;;;;;;;7.93;7.43;;;18.40;99.90;;;;;;4969063;28;20213;-80
2023/03/21 10:56:15;;;;;;;8.10;7.60;;;18.40;99.90;;;;;;4969035;28;20206;-80
2023/03/21 10:58:45;;;;;;;8.63;7.73;;;18.50;99.90;;;;;;4959922;28;20638;-80
2023/03/21 11:01:29;;;;;;;7.83;7.33;;;18.60;99.90;;;;;;4964788;28;20646;-80
2023/03/21 11:03:59;;;;;;;8.10;7.50;;;18.60;99.90;;;;;;4971267;28;20202;-80
2023/03/21 11:06:30;;;;;;;7.90;7.40;;;18.60;99.90;;;;;;4944964;28;20209;-80
2023/03/21 11:09:02;;;;;;;8.10;7.50;;;18.60;99.90;;;;;;4956116;28;20203;-79
2023/03/21 11:11:36;;;;;;;8.20;7.60;;;18.70;99.90;;;;;;4967207;28;20269;-79
2023/03/21 11:14:05;;;;;;;8.50;7.90;;;18.60;99.90;;;;;;4954486;28;20200;-79
2023/03/21 11:16:38;;;;;;;8.50;7.90;;;18.30;99.90;;;;;;4955487;28;20213;-80
2023/03/21 11:19:15;;;;;;;7.80;7.30;;;18.10;99.90;;;;;;4953807;28;20203;-79
2023/03/21 11:21:43;;;;;;;8.10;7.50;;;18.10;99.90;;;;;;4965816;28;20215;-79
2023/03/21 11:24:14;;;;;;;8.83;8.13;;;18.30;99.90;;;;;;4971065;28;20206;-79
2023/03/21 11:26:43;;;;;;;8.00;7.50;;;18.30;99.90;;;;;;4957756;28;20286;-79
2023/03/21 11:29:28;;;;;;;7.83;7.33;;;18.50;99.90;;;;;;4961065;28;20215;-79
2023/03/21 11:32:00;;;;;;;8.43;7.70;;;18.60;99.90;;;;;;4963049;28;20700;-79
2023/03/21 11:34:38;;;;;;;7.90;7.40;;;18.60;99.90;;;;;;4966863;28;20202;-79
2023/03/21 11:37:06;;;;;;;8.00;7.50;;;18.60;99.90;;;;;;4954478;28;20587;-78
2023/03/21 11:39:38;;;;;;;7.97;7.37;;;18.60;99.90;;;;;;4955953;28;20198;-79
2023/03/21 11:42:06;;;;;;;8.70;8.10;;;18.60;99.90;;;;;;4949881;28;20223;-79
2023/03/21 11:44:40;;;;;;;7.70;7.10;;;18.40;99.90;;;;;;4948875;28;20250;-79
2023/03/21 11:47:10;;;;;;;7.80;7.30;;;18.40;99.90;;;;;;4958695;28;20220;-78
2023/03/21 11:49:38;;;;;;;8.07;7.40;;;18.40;99.90;;;;;;4949778;28;20619;-79
2023/03/21 11:52:16;;;;;;;7.53;7.03;;;18.40;99.90;;;;;;4972674;28;20219;-78
2023/03/21 11:55:11;;;;;;;7.80;7.20;;;18.40;99.90;;;;;;4959447;28;20200;-78
2023/03/21 11:57:44;;;;;;;7.90;7.33;;;18.40;99.90;;;;;;4950364;28;20214;-77
2023/03/21 12:00:19;;;;;;;7.93;7.43;;;18.30;99.90;;;;;;4955910;28;20683;-78
2023/03/21 12:03:16;;;;;;;7.57;7.10;;;18.20;99.90;;;;;;4956792;28;20229;-79
2023/03/21 12:05:52;;;;;;;7.70;7.17;;;18.30;99.90;;;;;;4954116;28;20209;-80
2023/03/21 12:08:32;;;;;;;7.87;7.27;;;18.50;99.90;;;;;;4969011;28;20296;-79
2023/03/21 12:11:11;;;;;;;7.83;7.33;;;18.50;99.90;;;;;;4947229;28;20221;-79
2023/03/21 12:13:52;;;;;;;8.10;7.60;;;18.60;99.90;;;;;;4943327;28;20675;-79
2023/03/21 12:16:29;;;;;;;7.83;7.33;;;18.60;99.90;;;;;;4965586;28;20210;-78
2023/03/21 12:19:28;;;;;;;8.40;7.80;;;18.60;99.90;;;;;;4958567;28;20193;-79
2023/03/21 12:22:09;;;;;;;8.50;7.80;;;18.60;99.90;;;;;;4974416;28;20284;-78
2023/03/21 12:24:46;;;;;;;7.97;7.47;;;18.60;99.90;;;;;;4963002;28;20696;-78
2023/03/21 12:27:22;;;;;;;7.90;7.30;;;18.70;99.90;;;;;;4961055;28;20265;-78
2023/03/21 12:30:00;;;;;;;8.27;7.70;;;18.60;99.90;;;;;;4958209;28;20623;-78
2023/03/21 12:32:40;;;;;;;8.50;7.90;;;18.60;99.90;;;;;;4941099;28;20687;-78
2023/03/21 12:35:20;;;;;;;8.03;7.47;;;18.60;99.90;;;;;;4965777;28;20209;-78
2023/03/21 12:37:57;;;;;;;8.40;7.73;;;18.80;99.90;;;;;;4964540;28;20197;-78
2023/03/21 12:40:39;;;;;;;8.20;7.70;;;18.60;99.90;;;;;;4962153;28;20614;-79
2023/03/21 12:43:31;;;;;;;8.10;7.60;;;18.60;99.90;;;;;;4960553;28;20246;-78
2023/03/21 12:46:02;;;;;;;8.30;7.70;;;18.70;99.90;;;;;;4949874;28;20202;-78
2023/03/21 12:48:38;;;;;;;8.10;7.60;;;18.70;99.90;;;;;;4960488;28;20202;-78
2023/03/21 12:51:10;;;;;;;8.57;7.80;;;18.70;99.90;;;;;;4961900;28;20219;-78
2023/03/21 12:53:59;;;;;;;8.37;7.73;;;18.60;99.90;;;;;;4966958;28;20272;-78
2023/03/21 12:56:31;;;;;;;8.03;7.33;;;18.40;99.90;;;;;;4945313;28;20214;-78
2023/03/21 12:59:02;;;;;;;8.00;7.50;;;18.50;99.90;;;;;;4950948;28;20210;-78
2023/03/21 13:01:32;;;;;;;7.97;7.40;;;18.40;99.90;;;;;;4950212;28;20503;-78
2023/03/21 13:04:45;;;;;;;8.10;7.50;;;18.40;99.90;;;;;;4957318;28;20205;-78
2023/03/21 13:07:18;;;;;;;7.93;7.33;;;18.30;99.90;;;;;;4960946;28;20201;-79
2023/03/21 13:09:48;;;;;;;7.60;7.10;;;18.40;99.90;;;;;;4955982;28;20586;-79
2023/03/21 13:12:28;;;;;;;7.40;6.90;;;18.50;99.90;;;;;;4962332;28;20236;-78
2023/03/21 13:15:05;;;;;;;7.80;7.20;;;18.50;99.90;;;;;;4953383;28;20213;-80
2023/03/21 13:17:37;;;;;;;7.47;6.97;;;18.60;99.90;;;;;;4953291;28;20194;-81
2023/03/21 13:20:18;;;;;;;6.83;6.43;;;18.70;99.90;;;;;;4966620;28;20201;-80
2023/03/21 13:22:45;;;;;;;7.70;7.20;;;18.90;99.90;;;;;;4959965;28;20249;-81
2023/03/21 13:25:19;;;;;;;7.20;6.73;;;18.80;99.90;;;;;;4953626;28;20670;-81
2023/03/21 13:27:52;;;;;;;7.37;6.77;;;18.90;99.90;;;;;;4950657;28;20209;-81
2023/03/21 13:30:22;;;;;;;7.67;7.17;;;19.00;99.90;;;;;;4961116;28;20207;-83
2023/03/21 13:32:50;;;;;;;7.37;6.77;;;19.10;99.90;;;;;;4962842;28;20190;-81
2023/03/21 13:35:26;;;;;;;7.80;7.27;;;19.10;99.90;;;;;;4968416;28;20200;-80
2023/03/21 13:37:56;;;;;;;7.20;6.70;;;18.90;99.90;;;;;;4955746;28;20202;-80
2023/03/21 13:40:27;;;;;;;6.77;6.37;;;18.70;99.90;;;;;;4954279;28;20212;-80
2023/03/21 13:42:58;;;;;;;6.90;6.50;;;18.80;99.90;;;;;;4959523;28;20209;-80
2023/03/21 13:45:30;;;;;;;7.10;6.60;;;18.80;99.90;;;;;;4964947;28;20236;-80
2023/03/21 13:47:58;;;;;;;7.40;6.90;;;18.90;99.90;;;;;;4950688;28;20198;-79
2023/03/21 13:50:50;;;;;;;7.23;6.73;;;18.80;99.90;;;;;;4959887;28;20550;-80
2023/03/21 13:53:32;;;;;;;6.90;6.50;;;18.90;99.90;;;;;;4949009;28;20207;-80
2023/03/21 13:56:08;;;;;;;7.20;6.67;;;18.90;99.90;;;;;;4964946;28;20202;-80
2023/03/21 13:58:38;;;;;;;7.23;6.73;;;18.80;99.90;;;;;;4946145;28;20255;-80
2023/03/21 14:01:26;;;;;;;7.10;6.60;;;18.70;99.90;;;;;;4962429;28;20231;-81
2023/03/21 14:04:00;;;;;;;6.80;6.40;;;18.60;99.90;;;;;;4942361;28;20246;-80
2023/03/21 14:06:35;;;;;;;6.87;6.47;;;18.60;99.90;;;;;;4951928;28;20209;-80
2023/03/21 14:09:03;;;;;;;6.57;6.17;;;18.50;99.90;;;;;;4958444;28;20198;-80
2023/03/21 14:11:33;;;;;;;7.00;6.60;;;18.60;99.90;;;;;;4964796;28;20224;-79
2023/03/21 14:14:02;;;;;;;6.63;6.23;;;18.60;99.90;;;;;;4960272;28;20202;-80
2023/03/21 14:16:29;;;;;;;6.50;6.10;;;18.60;99.90;;;;;;4960163;28;20201;-80
2023/03/21 14:19:00;;;;;;;7.10;6.60;;;18.60;99.90;;;;;;4962722;28;20207;-78
2023/03/21 14:21:30;;;;;;;6.67;6.30;;;18.50;99.90;;;;;;4954551;28;20715;-78
2023/03/21 14:23:59;;;;;;;7.00;6.60;;;18.50;99.90;;;;;;4957522;28;20209;-78
2023/03/21 14:26:27;;;;;;;6.60;6.20;;;18.40;99.90;;;;;;4964937;28;20248;-78
2023/03/21 14:28:55;;;;;;;7.10;6.60;;;18.30;99.90;;;;;;4963799;28;20194;-78
2023/03/21 14:31:22;;;;;;;7.10;6.70;;;18.20;99.90;;;;;;4959399;28;20255;-78
2023/03/21 14:33:52;;;;;;;6.60;6.20;;;18.30;99.90;;;;;;4966077;28;20202;-78
2023/03/21 14:36:23;;;;;;;6.10;5.80;;;18.40;99.90;;;;;;4968327;28;20219;-79
2023/03/21 14:39:06;;;;;;;6.47;6.07;;;18.40;99.90;;;;;;4951832;28;20260;-77
2023/03/21 14:41:42;;;;;;;6.23;5.93;;;18.40;99.90;;;;;;4957829;28;20271;-78
2023/03/21 14:44:21;;;;;;;6.17;5.70;;;18.40;99.90;;;;;;4954540;28;20672;-78
2023/03/21 14:46:48;;;;;;;6.13;5.73;;;18.40;99.90;;;;;;4947241;28;20571;-76
2023/03/21 14:49:21;;;;;;;5.87;5.57;;;18.40;99.90;;;;;;4973685;28;20628;-80
2023/03/21 14:51:50;;;;;;;6.30;5.90;;;18.30;99.90;;;;;;4961587;28;20221;-77
2023/03/21 14:54:18;;;;;;;6.13;5.73;;;18.30;99.90;;;;;;4954414;28;20205;-79
2023/03/21 14:56:49;;;;;;;6.20;5.90;;;18.30;99.90;;;;;;4949350;28;20203;-79
2023/03/21 14:59:21;;;;;;;6.30;5.90;;;18.30;99.90;;;;;;4959637;28;20213;-79
2023/03/21 15:01:50;;;;;;;6.27;5.87;;;18.20;99.90;;;;;;4952424;28;20331;-78
2023/03/21 15:04:17;;;;;;;6.30;5.90;;;18.20;99.90;;;;;;4953310;28;20210;-78
2023/03/21 15:06:56;;;;;;;6.37;5.97;;;18.20;99.90;;;;;;4953207;28;20198;-79
2023/03/21 15:09:26;;;;;;;6.50;6.10;;;18.20;99.90;;;;;;4947594;28;20207;-78
2023/03/21 15:11:55;;;;;;;6.40;5.90;;;18.20;99.90;;;;;;4957138;28;20226;-79
2023/03/21 15:14:28;;;;;;;6.20;5.80;;;18.10;99.90;;;;;;4947101;28;20198;-78
2023/03/21 15:16:57;;;;;;;6.27;5.97;;;18.10;99.90;;;;;;4954188;28;20287;-79
2023/03/21 15:19:28;;;;;;;6.20;5.90;;;18.10;99.90;;;;;;4950260;28;20202;-79
2023/03/21 15:21:59;;;;;;;3.50;3.33;;;18.10;99.90;;;;;;4954569;28;20788;-79
2023/03/21 15:24:29;;;;;;;3.20;3.00;;;18.00;99.90;;;;;;4948209;28;20235;-78
2023/03/21 15:27:00;;;;;;;2.87;2.77;;;18.00;99.90;;;;;;4947150;28;20337;-78
2023/03/21 15:29:29;;;;;;;7.60;7.20;;;18.00;99.90;;;;;;4952101;28;20214;-79
2023/03/21 15:31:56;;;;;;;1.83;1.67;;;18.00;99.90;;;;;;4949281;28;20221;-79
2023/03/21 15:34:25;;;;;;;2.30;1.50;;;17.90;99.90;;;;;;4950954;28;20205;-78
2023/03/21 15:36:57;;;;;;;3.30;3.10;;;17.90;99.90;;;;;;4949826;28;20291;-78
2023/03/21 15:39:26;;;;;;;4.13;3.93;;;17.90;99.90;;;;;;4951583;28;20747;-79
2023/03/21 15:41:59;;;;;;;6.40;6.10;;;17.90;99.90;;;;;;4950678;28;20778;-79
2023/03/21 15:44:28;;;;;;;6.80;6.40;;;17.80;99.90;;;;;;4954296;28;20644;-78
2023/03/21 15:46:56;;;;;;;1.80;1.70;;;17.70;99.90;;;;;;4947696;28;20284;-79
2023/03/21 15:49:27;;;;;;;2.10;2.00;;;17.70;99.90;;;;;;4948969;28;20211;-79
2023/03/21 15:51:58;;;;;;;1.77;1.67;;;17.60;99.90;;;;;;4950364;28;20684;-79
2023/03/21 15:54:28;;;;;;;2.40;2.30;;;17.60;99.90;;;;;;4951126;28;20769;-79
2023/03/21 15:57:00;;;;;;;5.13;4.73;;;17.50;99.90;;;;;;4955135;28;20231;-80
2023/03/21 15:59:32;;;;;;;2.20;2.10;;;17.40;99.90;;;;;;4945739;28;20212;-80
2023/03/21 16:02:00;;;;;;;1.80;1.70;;;17.30;99.90;;;;;;4955294;28;20608;-81
2023/03/21 16:04:27;;;;;;;4.80;4.40;;;17.20;99.90;;;;;;4947131;28;20231;-80
2023/03/21 16:06:59;;;;;;;2.00;1.90;;;17.10;99.90;;;;;;4954062;28;20263;-79
2023/03/21 16:09:26;;;;;;;2.80;2.60;;;17.00;99.90;;;;;;4947447;28;20261;-80
2023/03/21 16:11:54;;;;;;;5.93;5.50;;;16.90;99.90;;;;;;4947967;28;20653;-80
2023/03/21 16:14:22;;;;;;;3.33;3.17;;;16.80;99.90;;;;;;4944785;28;20689;-80